Time;durP1;ratioP1;P1;durP2;ratioP2;P2;SDS_P1;SDS_P2;PMS_P1;PMS_P2;Temp;Humidity;BMP_temperature;BMP_pressure;BME280_temperature;BME280_humidity;BME280_pressure;Samples;Min_cycle;Max_cycle;Signal;HPM_P1;HPM_P2
2023/05/25 00:00:12;;;;;;;16.83;12.38;;;;;;;18.84;100.00;100436.59;5108899;28;20038;-65
2023/05/25 00:02:38;;;;;;;17.17;12.30;;;;;;;18.85;100.00;100444.56;5112556;28;20036;-64
2023/05/25 00:05:07;;;;;;;14.52;12.05;;;;;;;18.73;100.00;100429.72;5112791;28;20035;-64
2023/05/25 00:07:32;;;;;;;14.77;13.18;;;;;;;18.78;100.00;100438.19;5113001;28;20027;-64
2023/05/25 00:09:58;;;;;;;17.48;13.18;;;;;;;18.76;100.00;100451.09;5111861;28;20050;-64
2023/05/25 00:12:23;;;;;;;15.65;12.23;;;;;;;18.74;100.00;100455.03;5113275;28;20058;-64
2023/05/25 00:14:48;;;;;;;17.13;11.90;;;;;;;18.67;100.00;100444.03;5112685;28;20027;-64
2023/05/25 00:17:17;;;;;;;15.55;12.07;;;;;;;18.62;100.00;100438.31;5113152;28;20506;-64
2023/05/25 00:19:43;;;;;;;15.93;12.27;;;;;;;18.69;100.00;100447.41;5111229;28;20026;-64
2023/05/25 00:22:09;;;;;;;17.73;12.55;;;;;;;18.65;100.00;100453.41;5113130;28;20024;-64
2023/05/25 00:24:35;;;;;;;13.38;11.00;;;;;;;18.64;100.00;100447.13;5111816;28;20035;-64
2023/05/25 00:27:01;;;;;;;16.80;12.70;;;;;;;18.65;100.00;100450.69;5113135;28;20024;-64
2023/05/25 00:29:26;;;;;;;13.70;12.00;;;;;;;18.64;100.00;100463.41;5113332;28;20019;-64
2023/05/25 00:31:52;;;;;;;13.57;12.10;;;;;;;18.61;100.00;100463.81;5112883;28;20110;-64
2023/05/25 00:34:18;;;;;;;14.55;11.27;;;;;;;18.61;100.00;100463.81;5112806;28;20043;-64
2023/05/25 00:36:47;;;;;;;16.13;12.10;;;;;;;18.51;100.00;100456.94;5112813;28;20027;-64
2023/05/25 00:39:15;;;;;;;14.88;12.30;;;;;;;18.53;100.00;100466.56;5111744;28;20032;-64
2023/05/25 00:41:45;;;;;;;20.73;12.30;;;;;;;18.58;100.00;100474.19;5111456;28;20034;-64
2023/05/25 00:44:13;;;;;;;15.90;11.30;;;;;;;18.45;100.00;100460.38;5112845;28;20604;-70
2023/05/25 00:46:49;;;;;;;13.60;11.77;;;;;;;18.49;100.00;100469.84;5112796;28;20028;-69
2023/05/25 00:49:16;;;;;;;15.93;12.10;;;;;;;18.40;100.00;100462.75;5111001;28;20051;-69
2023/05/25 00:51:46;;;;;;;15.30;11.98;;;;;;;18.39;100.00;100464.66;5112945;28;20059;-69
2023/05/25 00:54:16;;;;;;;13.00;11.30;;;;;;;18.48;100.00;100474.44;5113309;28;20031;-69
2023/05/25 00:57:02;;;;;;;18.00;12.32;;;;;;;18.46;100.00;100487.34;5113322;28;20475;-70
2023/05/25 00:59:48;;;;;;;13.25;11.20;;;;;;;18.42;100.00;100479.75;5113041;27;20020;-69
2023/05/25 01:02:16;;;;;;;15.35;12.13;;;;;;;18.43;100.00;100490.44;5113095;28;20039;-69
2023/05/25 01:04:51;;;;;;;13.27;11.35;;;;;;;18.36;100.00;100478.59;5112795;27;20488;-69
2023/05/25 01:07:22;;;;;;;12.50;10.93;;;;;;;18.37;100.00;100471.28;5113135;28;20551;-68
2023/05/25 01:09:49;;;;;;;12.77;10.57;;;;;;;18.37;100.00;100488.44;5111117;28;20044;-69
2023/05/25 01:12:17;;;;;;;12.93;10.55;;;;;;;18.32;100.00;100473.66;5112757;28;20042;-69
2023/05/25 01:14:42;;;;;;;14.02;10.95;;;;;;;18.31;100.00;100478.25;5113006;28;20034;-69
2023/05/25 01:17:11;;;;;;;14.60;11.05;;;;;;;18.22;100.00;100473.06;5112814;27;20028;-69
2023/05/25 01:19:39;;;;;;;17.63;10.63;;;;;;;18.21;100.00;100480.34;5112111;28;20401;-70
2023/05/25 01:22:27;;;;;;;12.52;11.15;;;;;;;18.19;100.00;100478.84;5110472;28;20446;-70
2023/05/25 01:25:00;;;;;;;13.90;11.80;;;;;;;18.18;100.00;100483.44;5112355;28;20085;-69
2023/05/25 01:27:42;;;;;;;12.63;10.73;;;;;;;18.15;100.00;100482.97;5112914;28;20054;-70
2023/05/25 01:30:12;;;;;;;17.10;10.77;;;;;;;18.08;100.00;100471.13;5110651;28;20476;-70
2023/05/25 01:32:41;;;;;;;11.82;9.88;;;;;;;18.15;100.00;100480.25;5112659;28;20037;-69
2023/05/25 01:35:07;;;;;;;12.75;10.80;;;;;;;18.13;100.00;100485.84;5112621;28;20491;-69
2023/05/25 01:37:36;;;;;;;13.63;10.52;;;;;;;18.07;100.00;100470.28;5112689;28;20051;-69
2023/05/25 01:40:04;;;;;;;13.38;10.82;;;;;;;18.12;100.00;100486.84;5112364;28;20035;-69
2023/05/25 01:42:30;;;;;;;14.68;10.93;;;;;;;18.03;100.00;100474.38;5112430;28;20519;-69
2023/05/25 01:44:55;;;;;;;16.02;10.80;;;;;;;18.04;100.00;100470.63;5111024;28;20039;-68
2023/05/25 01:47:30;;;;;;;12.95;10.77;;;;;;;18.05;100.00;100489.44;5112317;28;20072;-69
2023/05/25 01:50:01;;;;;;;13.35;10.65;;;;;;;18.03;100.00;100488.78;5112350;28;20159;-69
2023/05/25 01:52:35;;;;;;;12.57;9.82;;;;;;;18.00;100.00;100491.00;5112663;28;20031;-70
2023/05/25 01:55:12;;;;;;;13.65;11.30;;;;;;;17.97;100.00;100491.38;5112274;28;20031;-70
2023/05/25 01:57:41;;;;;;;14.65;11.02;;;;;;;17.94;100.00;100498.00;5111218;28;20035;-69
2023/05/25 02:00:11;;;;;;;13.50;11.15;;;;;;;17.92;100.00;100502.75;5111023;28;20030;-70
2023/05/25 02:02:40;;;;;;;11.50;10.23;;;;;;;17.90;100.00;100498.53;5109809;28;20028;-69
2023/05/25 02:05:06;;;;;;;11.43;9.85;;;;;;;17.86;100.00;100500.75;5110806;28;20479;-70
2023/05/25 02:07:32;;;;;;;17.10;10.27;;;;;;;17.83;100.00;100498.38;5110814;28;20418;-70
2023/05/25 02:09:58;;;;;;;11.40;10.20;;;;;;;17.76;100.00;100491.13;5111994;28;20035;-69
2023/05/25 02:12:24;;;;;;;16.13;11.13;;;;;;;17.79;100.00;100501.63;5111918;28;20051;-69
2023/05/25 02:14:49;;;;;;;17.70;10.75;;;;;;;17.76;100.00;100500.13;5109525;28;20043;-71
2023/05/25 02:17:17;;;;;;;13.50;11.32;;;;;;;17.64;100.00;100487.13;5110997;28;20034;-69
2023/05/25 02:19:43;;;;;;;14.77;11.38;;;;;;;17.68;100.00;100507.44;5110597;28;20077;-70
2023/05/25 02:22:09;;;;;;;13.88;10.65;;;;;;;17.66;100.00;100514.91;5111540;28;20023;-69
2023/05/25 02:24:36;;;;;;;15.43;11.25;;;;;;;17.54;100.00;100494.63;5111208;28;20655;-69
2023/05/25 02:27:03;;;;;;;12.15;10.23;;;;;;;17.52;100.00;100505.66;5111796;28;20020;-70
2023/05/25 02:29:28;;;;;;;17.23;10.95;;;;;;;17.45;100.00;100496.47;5112029;28;20027;-69
2023/05/25 02:31:54;;;;;;;14.20;11.80;;;;;;;17.44;100.00;100511.06;5107627;28;20076;-68
2023/05/25 02:34:19;;;;;;;13.75;10.48;;;;;;;17.50;100.00;100514.94;5110445;28;20084;-69
2023/05/25 02:36:45;;;;;;;14.45;11.45;;;;;;;17.49;100.00;100521.41;5111519;28;20019;-70
2023/05/25 02:39:10;;;;;;;19.23;12.30;;;;;;;17.44;100.00;100518.34;5111328;28;20035;-70
2023/05/25 02:41:36;;;;;;;17.52;12.70;;;;;;;17.45;100.00;100523.59;5111661;27;20027;-70
2023/05/25 02:44:02;;;;;;;17.30;11.55;;;;;;;17.43;100.00;100527.53;5111266;28;20036;-70
2023/05/25 02:46:27;;;;;;;14.57;11.88;;;;;;;17.28;100.00;100499.41;5110165;28;20072;-69
2023/05/25 02:48:53;;;;;;;23.45;13.05;;;;;;;17.37;100.00;100520.91;5110825;28;20039;-69
2023/05/25 02:51:18;;;;;;;19.55;13.38;;;;;;;17.40;100.00;100525.13;5111733;28;20034;-69
2023/05/25 02:53:44;;;;;;;19.30;13.07;;;;;;;17.38;100.00;100529.88;5111484;28;20038;-69
2023/05/25 02:56:10;;;;;;;17.23;12.88;;;;;;;17.38;100.00;100536.13;5111284;28;20333;-69
2023/05/25 02:58:36;;;;;;;15.35;12.82;;;;;;;17.39;100.00;100537.00;5111296;28;20035;-69
2023/05/25 03:01:04;;;;;;;17.95;14.10;;;;;;;17.32;100.00;100530.56;5110058;28;20368;-70
2023/05/25 03:03:29;;;;;;;15.93;13.85;;;;;;;17.34;100.00;100536.66;5111036;28;20015;-69
2023/05/25 03:05:56;;;;;;;17.00;13.70;;;;;;;17.36;100.00;100531.91;5111202;28;20452;-70
2023/05/25 03:08:21;;;;;;;19.95;13.60;;;;;;;17.22;100.00;100521.78;5110836;28;20039;-69
2023/05/25 03:10:47;;;;;;;21.50;14.70;;;;;;;17.32;100.00;100539.53;5110540;28;20031;-70
2023/05/25 03:13:12;;;;;;;16.25;14.45;;;;;;;17.18;100.00;100520.41;5110752;28;20056;-70
2023/05/25 03:15:39;;;;;;;18.15;14.63;;;;;;;17.30;100.00;100541.59;5110734;28;20074;-70
2023/05/25 03:18:05;;;;;;;15.95;13.88;;;;;;;17.24;100.00;100531.44;5111295;28;20535;-69
2023/05/25 03:20:31;;;;;;;22.75;14.38;;;;;;;17.26;100.00;100537.53;5110768;28;20391;-69
2023/05/25 03:22:57;;;;;;;18.42;13.55;;;;;;;17.27;100.00;100532.94;5110516;27;20027;-68
2023/05/25 03:25:22;;;;;;;24.65;15.13;;;;;;;17.19;100.00;100532.97;5110829;28;20038;-69
2023/05/25 03:27:51;;;;;;;18.30;14.68;;;;;;;17.12;100.00;100524.66;5110860;28;20395;-70
2023/05/25 03:30:17;;;;;;;18.73;14.52;;;;;;;17.24;100.00;100542.28;5109798;28;20027;-69
2023/05/25 03:32:42;;;;;;;20.90;16.45;;;;;;;17.27;100.00;100547.34;5109428;28;20035;-70
2023/05/25 03:35:08;;;;;;;22.63;14.50;;;;;;;17.22;100.00;100538.06;5110072;28;20031;-70
2023/05/25 03:37:33;;;;;;;19.83;15.05;;;;;;;17.24;100.00;100542.28;5110116;28;20043;-69
2023/05/25 03:39:59;;;;;;;18.40;15.98;;;;;;;17.28;100.00;100556.34;5110391;28;20024;-69
2023/05/25 03:42:24;;;;;;;20.92;16.00;;;;;;;17.29;100.00;100560.75;5109543;28;20032;-69
2023/05/25 03:44:49;;;;;;;19.17;15.70;;;;;;;17.25;100.00;100551.25;5107602;28;20542;-70
2023/05/25 03:47:15;;;;;;;23.88;17.25;;;;;;;17.26;100.00;100556.53;5110604;28;20031;-69
2023/05/25 03:49:40;;;;;;;20.02;16.52;;;;;;;17.39;100.00;100566.81;5110401;28;20027;-69
2023/05/25 03:52:06;;;;;;;19.60;15.90;;;;;;;17.46;100.00;100566.00;5109230;28;20149;-70
2023/05/25 03:54:31;;;;;;;17.55;14.38;;;;;;;17.49;100.00;100562.09;5110617;28;20039;-64
2023/05/25 03:56:58;;;;;;;22.27;16.85;;;;;;;17.54;100.00;100565.13;5108832;28;20568;-64
2023/05/25 03:59:24;;;;;;;27.10;17.73;;;;;;;17.59;100.00;100570.88;5106066;28;20031;-65
2023/05/25 04:01:50;;;;;;;22.70;16.85;;;;;;;17.67;100.00;100577.13;5108627;28;20059;-64
2023/05/25 04:04:15;;;;;;;20.52;15.40;;;;;;;17.75;100.00;100581.69;5108808;28;20537;-64
2023/05/25 04:06:44;;;;;;;23.25;17.08;;;;;;;17.78;100.00;100574.06;5108195;28;20023;-65
2023/05/25 04:09:10;;;;;;;27.20;17.40;;;;;;;17.78;100.00;100578.63;5108798;28;20024;-64
2023/05/25 04:11:36;;;;;;;24.98;18.23;;;;;;;17.74;100.00;100569.97;5108454;28;20345;-65
2023/05/25 04:14:01;;;;;;;27.73;18.88;;;;;;;17.90;100.00;100593.53;5108764;28;20044;-66
2023/05/25 04:16:28;;;;;;;24.38;17.65;;;;;;;17.94;100.00;100589.44;5106447;28;20043;-65
2023/05/25 04:18:54;;;;;;;27.05;17.35;;;;;;;18.01;100.00;100584.97;5107096;28;20020;-66
2023/05/25 04:21:20;;;;;;;27.38;17.67;;;;;;;18.09;100.00;100582.25;5108084;28;20384;-65
2023/05/25 04:23:45;;;;;;;26.75;18.55;;;;;;;18.10;100.00;100590.19;5107892;28;20031;-66
2023/05/25 04:26:11;;;;;;;26.65;17.70;;;;;;;18.21;100.00;100588.97;5106951;28;20027;-65
2023/05/25 04:28:36;;;;;;;23.95;18.00;;;;;;;18.19;100.00;100584.75;5108422;28;20054;-64
2023/05/25 04:31:02;;;;;;;23.98;17.48;;;;;;;18.34;99.55;100588.41;5108344;28;20037;-65
2023/05/25 04:33:28;;;;;;;24.60;18.02;;;;;;;18.42;98.97;100582.94;5108201;28;20023;-65
2023/05/25 04:35:59;;;;;;;23.90;17.60;;;;;;;18.50;96.20;100572.06;5107705;28;20035;-66
2023/05/25 04:38:25;;;;;;;25.30;18.50;;;;;;;18.65;95.93;100592.84;5106010;28;20422;-65
2023/05/25 04:40:52;;;;;;;27.38;18.65;;;;;;;18.71;94.11;100592.13;5107572;28;20031;-65
2023/05/25 04:43:19;;;;;;;29.10;18.88;;;;;;;18.78;93.18;100587.66;5108385;28;20030;-66
2023/05/25 04:45:45;;;;;;;24.83;17.13;;;;;;;18.90;92.95;100596.22;5108263;28;20026;-64
2023/05/25 04:48:12;;;;;;;22.33;17.63;;;;;;;18.89;91.70;100592.66;5109313;28;20031;-65
2023/05/25 04:50:40;;;;;;;28.55;18.05;;;;;;;19.05;90.70;100597.97;5111743;28;20099;-65
2023/05/25 04:53:05;;;;;;;23.70;17.35;;;;;;;19.13;89.08;100597.91;5111964;28;20032;-66
2023/05/25 04:55:31;;;;;;;23.85;17.50;;;;;;;19.17;89.17;100606.53;5111540;28;20046;-65
2023/05/25 04:57:57;;;;;;;28.73;17.80;;;;;;;19.23;88.29;100603.94;5111442;28;20027;-65
2023/05/25 05:00:23;;;;;;;21.73;17.25;;;;;;;19.31;87.47;100603.06;5111743;28;20084;-70
2023/05/25 05:02:50;;;;;;;24.73;17.65;;;;;;;19.37;86.09;100605.88;5113253;28;20028;-69
2023/05/25 05:05:16;;;;;;;23.58;16.40;;;;;;;19.38;85.24;100604.84;5111762;28;20106;-69
2023/05/25 05:07:41;;;;;;;35.00;18.70;;;;;;;19.49;84.81;100617.16;5112442;28;20530;-70
2023/05/25 05:10:07;;;;;;;23.85;18.38;;;;;;;19.49;83.64;100611.72;5112885;28;20023;-69
2023/05/25 05:12:32;;;;;;;27.05;18.27;;;;;;;19.62;81.77;100620.94;5112845;28;20054;-69
2023/05/25 05:14:58;;;;;;;27.02;17.33;;;;;;;19.67;81.46;100618.50;5112527;28;20795;-69
2023/05/25 05:17:25;;;;;;;26.75;17.88;;;;;;;19.68;80.45;100594.88;5111665;28;20390;-70
2023/05/25 05:19:50;;;;;;;24.25;17.42;;;;;;;19.84;80.76;100614.59;5112884;28;20802;-70
2023/05/25 05:22:16;;;;;;;26.65;17.98;;;;;;;19.94;80.39;100612.44;5113151;28;20031;-70
2023/05/25 05:24:41;;;;;;;27.63;17.17;;;;;;;19.94;79.12;100597.97;5113028;28;20028;-70
2023/05/25 05:27:07;;;;;;;23.92;17.42;;;;;;;20.11;78.74;100613.06;5112042;28;20801;-70
2023/05/25 05:29:33;;;;;;;28.90;17.67;;;;;;;20.13;76.94;100611.06;5111946;28;20027;-69
2023/05/25 05:31:59;;;;;;;22.27;15.93;;;;;;;20.19;75.74;100596.69;5112825;28;20136;-70
2023/05/25 05:34:25;;;;;;;28.65;17.67;;;;;;;20.42;75.51;100626.50;5111393;28;20035;-69
2023/05/25 05:36:51;;;;;;;32.70;17.23;;;;;;;20.51;74.92;100633.56;5112797;28;20456;-69
2023/05/25 05:39:16;;;;;;;24.60;16.75;;;;;;;20.52;75.52;100636.09;5111808;28;20102;-69
2023/05/25 05:41:44;;;;;;;30.58;16.63;;;;;;;20.58;74.95;100632.59;5113084;28;20040;-69
2023/05/25 05:44:10;;;;;;;25.08;16.73;;;;;;;20.69;74.30;100631.25;5111773;28;20613;-69
2023/05/25 05:46:36;;;;;;;25.92;17.35;;;;;;;20.76;74.58;100630.28;5112742;28;20030;-69
2023/05/25 05:49:02;;;;;;;28.30;15.93;;;;;;;20.80;74.56;100626.13;5112794;28;20035;-70
2023/05/25 05:51:29;;;;;;;23.48;16.45;;;;;;;20.94;73.92;100633.47;5112882;28;20028;-69
2023/05/25 05:53:55;;;;;;;22.02;15.50;;;;;;;20.99;72.61;100636.44;5112762;28;20040;-69
2023/05/25 05:56:20;;;;;;;23.17;17.75;;;;;;;21.04;71.55;100636.72;5112849;28;20033;-69
2023/05/25 05:58:48;;;;;;;20.55;16.35;;;;;;;21.10;72.01;100641.41;5112045;28;20031;-69
2023/05/25 06:01:16;;;;;;;22.13;15.40;;;;;;;21.18;71.44;100638.53;5112121;28;20024;-70
2023/05/25 06:03:42;;;;;;;19.80;15.68;;;;;;;21.28;71.43;100638.22;5113076;28;20020;-70
2023/05/25 06:06:07;;;;;;;24.10;16.23;;;;;;;21.39;70.71;100649.44;5113401;28;20051;-70
2023/05/25 06:08:33;;;;;;;28.25;15.98;;;;;;;21.39;70.26;100633.06;5113294;28;20528;-70
2023/05/25 06:10:58;;;;;;;19.42;15.63;;;;;;;21.42;70.59;100645.47;5112799;28;20489;-69
2023/05/25 06:13:23;;;;;;;22.42;16.40;;;;;;;21.41;70.88;100641.88;5113073;28;20051;-69
2023/05/25 06:15:49;;;;;;;22.15;15.57;;;;;;;21.47;70.48;100638.38;5112728;28;20375;-69
2023/05/25 06:18:15;;;;;;;17.95;14.57;;;;;;;21.59;69.95;100646.88;5113147;28;20380;-69
2023/05/25 06:20:40;;;;;;;20.08;15.35;;;;;;;21.65;69.11;100651.56;5112835;28;20485;-70
2023/05/25 06:23:08;;;;;;;18.40;14.40;;;;;;;21.72;68.67;100631.44;5112769;28;20418;-69
2023/05/25 06:25:33;;;;;;;19.80;14.57;;;;;;;21.89;68.17;100640.19;5112867;28;20023;-67
2023/05/25 06:27:58;;;;;;;20.73;14.65;;;;;;;21.95;67.48;100637.53;5110977;28;20039;-67
2023/05/25 06:30:24;;;;;;;20.10;13.80;;;;;;;22.12;66.74;100643.53;5111035;28;20122;-66
2023/05/25 06:32:49;;;;;;;19.95;14.00;;;;;;;22.20;66.24;100652.41;5109207;28;20015;-66
2023/05/25 06:35:18;;;;;;;19.85;13.73;;;;;;;22.24;65.95;100648.22;5110839;28;20115;-67
2023/05/25 06:37:45;;;;;;;17.63;13.82;;;;;;;22.26;65.80;100643.41;5108712;28;20055;-67
2023/05/25 06:40:11;;;;;;;21.90;14.45;;;;;;;22.35;64.66;100646.81;5110728;28;20174;-65
2023/05/25 06:42:37;;;;;;;17.52;13.43;;;;;;;22.43;64.79;100635.69;5110747;28;20100;-66
2023/05/25 06:45:04;;;;;;;19.13;13.50;;;;;;;22.56;64.67;100645.88;5110288;28;20121;-67
2023/05/25 06:47:29;;;;;;;17.15;12.63;;;;;;;22.71;63.47;100647.41;5110713;28;20482;-67
2023/05/25 06:49:55;;;;;;;19.52;13.38;;;;;;;22.81;63.15;100650.59;5110655;27;20027;-66
2023/05/25 06:52:20;;;;;;;18.13;12.93;;;;;;;22.96;62.64;100647.69;5109969;28;20031;-69
2023/05/25 06:54:46;;;;;;;16.95;13.20;;;;;;;23.01;62.66;100653.38;5112123;28;20020;-70
2023/05/25 06:57:11;;;;;;;16.50;12.05;;;;;;;23.09;61.71;100639.53;5111976;28;20435;-70
2023/05/25 06:59:37;;;;;;;17.33;12.32;;;;;;;23.25;61.04;100659.16;5112071;28;20499;-70
2023/05/25 07:02:02;;;;;;;18.63;12.00;;;;;;;23.27;60.83;100651.59;5106849;28;20771;-70
2023/05/25 07:04:28;;;;;;;14.95;12.35;;;;;;;23.31;61.18;100658.31;5111974;28;20026;-70
2023/05/25 07:06:53;;;;;;;16.25;13.00;;;;;;;23.26;60.29;100640.84;5110200;28;20069;-71
2023/05/25 07:09:19;;;;;;;18.30;12.40;;;;;;;23.33;60.46;100653.50;5112098;28;20023;-71
2023/05/25 07:11:45;;;;;;;14.57;11.73;;;;;;;23.31;59.55;100650.09;5109828;28;20509;-70
2023/05/25 07:14:10;;;;;;;20.33;11.77;;;;;;;23.40;59.62;100653.47;5110727;28;20031;-69
2023/05/25 07:16:36;;;;;;;13.20;10.25;;;;;;;23.46;59.39;100648.03;5111499;28;20103;-70
2023/05/25 07:19:01;;;;;;;13.15;10.85;;;;;;;23.56;58.94;100662.16;5111571;28;20382;-69
2023/05/25 07:21:35;;;;;;;12.43;11.18;;;;;;;23.61;59.55;100648.69;5111606;28;20464;-71
2023/05/25 07:24:01;;;;;;;17.23;12.05;;;;;;;23.65;59.91;100654.56;5111909;28;20489;-71
2023/05/25 07:26:27;;;;;;;14.85;12.43;;;;;;;23.66;60.08;100648.00;5108987;28;20099;-70
2023/05/25 07:28:52;;;;;;;13.75;11.77;;;;;;;23.80;59.70;100657.94;5111539;28;20388;-70
2023/05/25 07:31:18;;;;;;;13.75;11.38;;;;;;;23.81;59.84;100654.97;5109017;28;20054;-69
2023/05/25 07:33:44;;;;;;;15.18;11.30;;;;;;;23.87;59.32;100656.88;5111552;28;20020;-70
2023/05/25 07:36:09;;;;;;;15.65;11.50;;;;;;;23.80;58.53;100644.25;5111567;28;20020;-70
2023/05/25 07:38:35;;;;;;;16.17;12.00;;;;;;;23.95;59.02;100653.94;5111274;28;20020;-70
2023/05/25 07:41:01;;;;;;;15.45;11.32;;;;;;;23.96;59.60;100650.13;5111284;28;20432;-70
2023/05/25 07:43:26;;;;;;;16.02;12.75;;;;;;;23.85;59.33;100645.28;5111321;28;20464;-71
2023/05/25 07:45:52;;;;;;;21.60;13.20;;;;;;;24.04;58.59;100652.66;5111186;28;20102;-70
2023/05/25 07:48:18;;;;;;;17.30;12.02;;;;;;;23.91;58.59;100635.34;5110835;28;20143;-72
2023/05/25 07:50:43;;;;;;;11.95;8.68;;;;;;;23.93;58.53;100639.56;5109028;28;20108;-70
2023/05/25 07:53:09;;;;;;;13.50;10.35;;;;;;;24.09;57.86;100649.28;5111339;28;20055;-72
2023/05/25 07:55:34;;;;;;;13.98;10.20;;;;;;;24.06;58.33;100646.97;5111463;28;20034;-69
2023/05/25 07:58:00;;;;;;;12.18;9.35;;;;;;;24.17;57.33;100647.16;5110889;28;20483;-70
2023/05/25 08:00:26;;;;;;;10.07;8.98;;;;;;;24.27;57.18;100654.91;5110325;28;20026;-70
2023/05/25 08:02:51;;;;;;;10.82;9.55;;;;;;;24.30;57.45;100658.09;5108483;28;20023;-71
2023/05/25 08:05:17;;;;;;;10.40;9.27;;;;;;;24.29;57.83;100656.41;5111132;28;20035;-70
2023/05/25 08:07:44;;;;;;;11.80;8.85;;;;;;;24.36;57.27;100650.91;5111233;28;20032;-70
2023/05/25 08:10:10;;;;;;;10.80;8.98;;;;;;;24.36;56.81;100649.00;5111135;28;20036;-70
2023/05/25 08:12:36;;;;;;;13.75;9.10;;;;;;;24.46;56.97;100654.03;5111274;28;20206;-70
2023/05/25 08:15:02;;;;;;;15.10;10.18;;;;;;;24.36;57.01;100638.03;5109364;28;20031;-70
2023/05/25 08:17:27;;;;;;;11.30;9.38;;;;;;;24.51;56.50;100647.88;5109430;28;20400;-70
2023/05/25 08:19:54;;;;;;;12.43;9.20;;;;;;;24.47;56.30;100646.66;5110845;28;20011;-71
2023/05/25 08:22:20;;;;;;;14.68;9.70;;;;;;;24.54;56.52;100659.28;5112042;28;20031;-71
2023/05/25 08:24:45;;;;;;;11.38;9.43;;;;;;;24.53;56.29;100654.00;5115049;28;20031;-70
2023/05/25 08:27:11;;;;;;;11.27;8.43;;;;;;;24.56;56.19;100646.19;5114546;28;20489;-70
2023/05/25 08:29:36;;;;;;;11.38;8.93;;;;;;;24.69;56.75;100656.31;5113694;28;20519;-70
2023/05/25 08:32:02;;;;;;;12.15;9.15;;;;;;;24.78;56.06;100653.09;5114561;28;20036;-70
2023/05/25 08:34:28;;;;;;;15.20;9.70;;;;;;;24.80;56.42;100652.88;5114850;28;20024;-70
2023/05/25 08:36:53;;;;;;;13.52;9.13;;;;;;;24.82;56.01;100648.84;5114343;28;20050;-70
2023/05/25 08:39:19;;;;;;;10.32;8.65;;;;;;;24.88;55.22;100649.84;5114740;28;20112;-71
2023/05/25 08:41:44;;;;;;;11.40;9.35;;;;;;;24.91;55.30;100652.16;5114878;28;20031;-71
2023/05/25 08:44:10;;;;;;;10.85;8.45;;;;;;;24.93;55.48;100648.16;5115359;27;20034;-70
2023/05/25 08:46:36;;;;;;;14.93;8.88;;;;;;;25.01;55.23;100636.91;5114560;28;20035;-70
2023/05/25 08:49:14;;;;;;;10.63;8.73;;;;;;;25.12;55.70;100658.16;5114698;28;20027;-70
2023/05/25 08:51:54;;;;;;;11.25;9.02;;;;;;;25.07;55.66;100643.41;5114726;28;20027;-71
2023/05/25 08:54:27;;;;;;;10.02;8.05;;;;;;;25.11;55.12;100645.50;5113396;28;20036;-70
2023/05/25 08:57:09;;;;;;;11.20;8.88;;;;;;;25.21;53.99;100650.53;5114308;28;20043;-70
2023/05/25 08:59:50;;;;;;;11.82;8.52;;;;;;;25.11;54.87;100651.00;5114255;28;20032;-69
2023/05/25 09:02:37;;;;;;;8.70;7.80;;;;;;;25.05;54.47;100659.28;5114255;27;20023;-71
2023/05/25 09:05:04;;;;;;;10.75;8.60;;;;;;;25.05;53.64;100645.56;5112001;28;20165;-68
2023/05/25 09:07:30;;;;;;;15.23;8.35;;;;;;;25.05;53.71;100643.63;5112567;28;20106;-70
2023/05/25 09:09:56;;;;;;;9.75;8.60;;;;;;;25.12;53.86;100649.09;5111180;28;20037;-71
2023/05/25 09:12:22;;;;;;;11.85;10.18;;;;;;;25.24;53.46;100658.31;5113898;28;20052;-71
2023/05/25 09:14:48;;;;;;;16.15;9.93;;;;;;;25.26;53.69;100653.44;5112925;28;20046;-67
2023/05/25 09:17:15;;;;;;;16.92;9.63;;;;;;;25.22;53.64;100658.53;5111497;28;20131;-66
2023/05/25 09:19:40;;;;;;;13.10;10.00;;;;;;;25.14;53.86;100667.03;5113457;27;20387;-70
2023/05/25 09:22:06;;;;;;;13.82;10.25;;;;;;;25.10;53.81;100659.44;5113942;28;20028;-70
2023/05/25 09:24:32;;;;;;;15.32;11.38;;;;;;;25.11;54.29;100655.66;5113916;28;20035;-70
2023/05/25 09:26:58;;;;;;;16.27;11.18;;;;;;;25.26;54.18;100670.75;5112410;28;20019;-70
2023/05/25 09:29:25;;;;;;;17.48;12.43;;;;;;;25.23;54.14;100660.22;5114203;28;20147;-70
2023/05/25 09:31:50;;;;;;;16.70;12.35;;;;;;;25.30;53.57;100662.91;5111931;28;20031;-70
2023/05/25 09:34:16;;;;;;;15.38;11.35;;;;;;;25.33;53.29;100662.50;5111982;28;20110;-67
2023/05/25 09:36:41;;;;;;;19.33;12.43;;;;;;;25.29;53.31;100663.97;5112497;28;20031;-66
2023/05/25 09:39:09;;;;;;;16.85;11.80;;;;;;;25.21;52.85;100661.50;5111940;28;20027;-66
2023/05/25 09:41:35;;;;;;;14.20;11.50;;;;;;;25.09;53.32;100657.78;5112123;28;20469;-67
2023/05/25 09:44:00;;;;;;;15.13;11.68;;;;;;;25.08;53.67;100664.34;5111894;28;20089;-66
2023/05/25 09:46:27;;;;;;;15.18;11.10;;;;;;;25.15;53.17;100662.38;5112059;28;20032;-67
2023/05/25 09:48:53;;;;;;;12.07;9.65;;;;;;;25.30;51.42;100658.25;5111755;28;20047;-67
2023/05/25 09:51:20;;;;;;;14.32;10.73;;;;;;;25.18;51.63;100640.81;5111916;28;20098;-66
2023/05/25 09:53:46;;;;;;;13.13;10.10;;;;;;;25.26;52.58;100658.94;5109631;28;20027;-67
2023/05/25 09:56:12;;;;;;;16.42;11.30;;;;;;;25.35;53.05;100663.13;5111871;28;20055;-67
2023/05/25 09:58:38;;;;;;;13.35;10.35;;;;;;;25.34;53.12;100666.94;5111903;28;20074;-67
2023/05/25 10:01:03;;;;;;;11.45;10.15;;;;;;;25.22;53.43;100653.06;5111483;28;20441;-66
2023/05/25 10:03:32;;;;;;;14.43;10.13;;;;;;;25.24;53.38;100667.38;5111559;28;20077;-66
2023/05/25 10:05:57;;;;;;;13.02;9.98;;;;;;;25.21;53.45;100656.03;5111389;28;20019;-67
2023/05/25 10:08:24;;;;;;;10.52;9.43;;;;;;;25.23;53.67;100642.88;5111812;28;20038;-67
2023/05/25 10:10:50;;;;;;;9.00;6.90;;;;;;;25.37;51.54;100650.03;5111413;28;20023;-67
2023/05/25 10:13:20;;;;;;;7.97;7.18;;;;;;;25.46;51.56;100656.91;5111397;28;20439;-66
2023/05/25 10:15:47;;;;;;;9.80;7.05;;;;;;;25.40;51.98;100653.16;5111517;28;20036;-66
2023/05/25 10:18:14;;;;;;;9.57;7.30;;;;;;;25.40;52.31;100655.91;5111412;28;20036;-67
2023/05/25 10:20:45;;;;;;;10.13;7.20;;;;;;;25.45;51.95;100650.59;5111446;28;20353;-67
2023/05/25 10:23:13;;;;;;;7.28;6.45;;;;;;;25.50;52.22;100656.25;5111305;28;20015;-67
2023/05/25 10:25:43;;;;;;;7.70;6.95;;;;;;;25.50;52.53;100650.75;5111302;27;20108;-68
2023/05/25 10:28:25;;;;;;;7.85;6.25;;;;;;;25.60;51.75;100656.59;5111252;28;20062;-67
2023/05/25 10:30:52;;;;;;;10.73;7.00;;;;;;;25.67;52.29;100656.53;5106712;28;20079;-66
2023/05/25 10:33:19;;;;;;;7.63;6.60;;;;;;;25.74;52.12;100651.81;5109655;28;20093;-68
2023/05/25 10:35:45;;;;;;;7.43;6.65;;;;;;;25.83;51.81;100655.97;5109229;28;20417;-66
2023/05/25 10:38:12;;;;;;;9.45;7.43;;;;;;;25.75;51.49;100642.50;5111243;28;20030;-67
2023/05/25 10:40:38;;;;;;;9.88;7.55;;;;;;;25.73;51.59;100653.72;5111361;28;20541;-66
2023/05/25 10:43:05;;;;;;;9.43;7.32;;;;;;;25.65;51.60;100648.53;5111198;28;20035;-66
2023/05/25 10:45:31;;;;;;;11.60;7.15;;;;;;;25.60;51.64;100639.28;5110803;28;20051;-65
2023/05/25 10:47:57;;;;;;;9.05;6.78;;;;;;;25.62;51.89;100642.63;5111622;28;20027;-71
2023/05/25 10:50:27;;;;;;;7.00;6.28;;;;;;;25.68;51.57;100645.34;5112274;28;20023;-70
2023/05/25 10:53:12;;;;;;;7.25;6.45;;;;;;;25.72;50.97;100643.81;5111743;28;20023;-71
2023/05/25 10:55:43;;;;;;;7.18;6.13;;;;;;;25.80;51.60;100635.25;5109357;28;20472;-71
2023/05/25 10:58:14;;;;;;;6.68;6.07;;;;;;;25.78;51.05;100631.06;5109738;28;20035;-71
2023/05/25 11:00:40;;;;;;;6.45;5.78;;;;;;;25.83;50.94;100636.75;5111179;28;20031;-71
2023/05/25 11:03:07;;;;;;;10.88;6.35;;;;;;;25.97;50.06;100633.66;5111962;28;20024;-71
2023/05/25 11:05:37;;;;;;;6.97;5.38;;;;;;;25.83;50.89;100636.75;5112353;28;20110;-70
2023/05/25 11:08:15;;;;;;;5.95;5.30;;;;;;;25.72;51.04;100629.22;5143166;27;20456;-70